Time;durP1;ratioP1;P1;durP2;ratioP2;P2;SDS_P1;SDS_P2;PMS_P1;PMS_P2;Temp;Humidity;BMP_temperature;BMP_pressure;BME280_temperature;BME280_humidity;BME280_pressure;Samples;Min_cycle;Max_cycle;Signal;HPM_P1;HPM_P2
2022/09/01 00:00:12;;;;;;;22.20;16.77;;;;;;;-141.28;100.00;48883.94;5084168;28;20225;-75
2022/09/01 00:02:39;;;;;;;24.00;18.27;;;;;;;-141.28;100.00;48858.44;5114011;28;20255;-75
2022/09/01 00:05:07;;;;;;;24.40;17.90;;;;;;;-141.28;100.00;48842.75;5103518;28;20194;-75
2022/09/01 00:07:35;;;;;;;25.77;17.43;;;;;;;-141.28;100.00;48827.06;5115795;28;20600;-77
2022/09/01 00:10:05;;;;;;;23.03;17.70;;;;;;;-141.28;100.00;48821.16;5086629;28;20219;-76
2022/09/01 00:12:32;;;;;;;22.10;17.30;;;;;;;-141.28;100.00;48815.28;5112489;28;20202;-75
2022/09/01 00:15:03;;;;;;;20.60;17.70;;;;;;;-141.28;100.00;48783.91;5113224;28;20221;-75
2022/09/01 00:17:30;;;;;;;23.63;17.93;;;;;;;-141.28;100.00;48744.66;5111331;28;20255;-76
2022/09/01 00:19:57;;;;;;;23.00;17.97;;;;;;;-141.28;100.00;48750.53;5112930;28;20277;-77
2022/09/01 00:22:26;;;;;;;22.47;18.33;;;;;;;-141.28;100.00;48738.78;5107491;28;20206;-75
2022/09/01 00:24:55;;;;;;;27.03;19.60;;;;;;;-141.28;100.00;48717.19;5094755;28;20191;-75
2022/09/01 00:27:23;;;;;;;30.30;19.33;;;;;;;-141.28;100.00;48713.25;5084006;28;20207;-75
2022/09/01 00:29:51;;;;;;;22.97;17.17;;;;;;;-141.28;100.00;48685.81;5072956;28;20235;-75
2022/09/01 00:32:20;;;;;;;23.60;17.73;;;;;;;-141.28;100.00;48693.66;5073120;28;20655;-74
2022/09/01 00:34:50;;;;;;;23.37;19.03;;;;;;;-141.28;100.00;48677.94;5073530;28;20306;-75
2022/09/01 00:37:18;;;;;;;22.10;18.47;;;;;;;-141.28;100.00;48676.00;5083619;28;20211;-76
2022/09/01 00:39:45;;;;;;;25.53;20.43;;;;;;;-141.28;100.00;48636.75;5093485;28;20685;-74
2022/09/01 00:42:12;;;;;;;27.57;19.50;;;;;;;-141.28;100.00;48615.19;5081508;28;20196;-75
2022/09/01 00:44:39;;;;;;;28.33;19.67;;;;;;;-141.28;100.00;48597.53;5073286;28;20196;-76
2022/09/01 00:47:08;;;;;;;26.80;19.33;;;;;;;-141.28;100.00;48572.00;5084406;28;20199;-76
2022/09/01 00:49:38;;;;;;;26.07;19.53;;;;;;;-141.28;100.00;48568.09;5081692;28;20207;-76
2022/09/01 00:52:08;;;;;;;23.47;19.03;;;;;;;-141.28;100.00;48528.84;5103779;28;20221;-75
2022/09/01 00:54:40;;;;;;;26.40;19.67;;;;;;;-141.28;100.00;48517.09;5092184;28;20204;-74
2022/09/01 00:57:11;;;;;;;26.87;21.17;;;;;;;-141.28;100.00;48511.19;5110773;28;20191;-74
2022/09/01 00:59:41;;;;;;;28.73;20.37;;;;;;;-141.28;100.00;48487.66;5111967;28;20201;-76
2022/09/01 01:02:10;;;;;;;25.23;19.00;;;;;;;-141.28;100.00;48493.53;5079467;28;20614;-76
2022/09/01 01:04:42;;;;;;;25.40;18.57;;;;;;;-141.28;100.00;48491.59;5080984;28;20201;-76
2022/09/01 01:07:11;;;;;;;26.27;18.37;;;;;;;-141.28;100.00;48477.84;5072260;28;20215;-75
2022/09/01 01:09:42;;;;;;;27.07;18.93;;;;;;;-141.28;100.00;48471.97;5072111;28;20200;-75
2022/09/01 01:12:17;;;;;;;28.73;19.73;;;;;;;-141.28;100.00;48481.78;5078263;28;20669;-75
2022/09/01 01:14:46;;;;;;;22.90;17.73;;;;;;;-141.28;100.00;48489.63;5078413;28;20250;-76
2022/09/01 01:17:13;;;;;;;22.53;18.43;;;;;;;-141.28;100.00;48470.00;5088540;28;20205;-75
2022/09/01 01:25:25;;;;;;;23.40;17.83;;;;;;;-141.28;100.00;48513.16;5090159;28;20203;-75
2022/09/01 01:27:52;;;;;;;23.03;17.93;;;;;;;-141.28;100.00;48458.22;5091922;28;20200;-76
2022/09/01 01:30:20;;;;;;;25.73;18.43;;;;;;;-141.28;100.00;48438.63;5078449;28;20206;-75
2022/09/01 01:32:48;;;;;;;26.07;18.40;;;;;;;-141.28;100.00;48454.31;5091616;28;20196;-76
2022/09/01 01:35:19;;;;;;;26.13;19.43;;;;;;;-141.28;100.00;48466.09;5108544;28;20195;-77
2022/09/01 01:37:49;;;;;;;23.23;17.73;;;;;;;-141.28;100.00;48470.00;5111845;28;20673;-75
2022/09/01 01:40:21;;;;;;;26.13;18.53;;;;;;;-141.28;100.00;48473.94;5073853;28;20208;-76
2022/09/01 01:42:52;;;;;;;24.97;20.90;;;;;;;-141.28;100.00;48485.69;5084589;28;20196;-76
2022/09/01 01:45:23;;;;;;;26.40;20.33;;;;;;;-141.28;100.00;48485.69;5085339;28;20204;-75
2022/09/01 01:47:53;;;;;;;25.93;20.17;;;;;;;-141.28;100.00;48477.84;5079342;28;20202;-75
2022/09/01 01:50:21;;;;;;;30.17;20.90;;;;;;;-141.28;100.00;48460.19;5090165;28;20278;-77
2022/09/01 01:52:48;;;;;;;29.00;21.03;;;;;;;-141.28;100.00;48434.69;5071538;28;20188;-74
2022/09/01 01:55:18;;;;;;;24.23;19.63;;;;;;;-141.28;100.00;48422.94;5072135;28;20235;-76
2022/09/01 01:57:48;;;;;;;31.47;21.30;;;;;;;-141.28;100.00;48438.63;5080628;28;20227;-75
2022/09/01 02:00:21;;;;;;;27.97;21.10;;;;;;;-141.28;100.00;48424.88;5089533;28;20217;-76
2022/09/01 02:02:52;;;;;;;28.97;21.80;;;;;;;-141.28;100.00;48336.63;5071874;28;20663;-76
2022/09/01 02:05:23;;;;;;;23.30;19.37;;;;;;;-141.28;100.00;48389.56;5072910;28;20564;-74
2022/09/01 02:07:55;;;;;;;24.47;19.27;;;;;;;-141.28;100.00;48389.56;5084353;28;20199;-74
2022/09/01 02:10:24;;;;;;;24.03;18.37;;;;;;;-141.28;100.00;48379.78;5090819;28;20220;-74
2022/09/01 02:12:53;;;;;;;24.47;17.67;;;;;;;-141.28;100.00;48373.88;5074945;28;20192;-76
2022/09/01 02:15:22;;;;;;;21.40;17.53;;;;;;;-141.28;100.00;48375.84;5074083;28;20274;-74
2022/09/01 02:17:49;;;;;;;24.97;18.07;;;;;;;-141.28;100.00;48371.91;5092093;28;20202;-75
2022/09/01 02:20:17;;;;;;;23.20;17.33;;;;;;;-141.28;100.00;48383.69;5092054;28;20206;-74
2022/09/01 02:22:44;;;;;;;24.03;17.60;;;;;;;-141.28;100.00;48399.38;5091675;28;20650;-76
2022/09/01 02:25:15;;;;;;;23.77;17.60;;;;;;;-141.28;100.00;48411.16;5092586;28;20260;-78
2022/09/01 02:27:43;;;;;;;23.30;17.27;;;;;;;-141.28;100.00;48436.66;5102961;28;20188;-76
2022/09/01 02:30:11;;;;;;;26.50;17.57;;;;;;;-141.28;100.00;48420.97;5090190;28;20278;-76
2022/09/01 02:32:40;;;;;;;22.03;16.50;;;;;;;-141.28;100.00;48442.53;5100436;28;20298;-76
2022/09/01 02:35:08;;;;;;;24.73;16.17;;;;;;;-141.28;100.00;48470.00;5092088;28;20200;-75
2022/09/01 02:37:38;;;;;;;18.43;13.83;;;;;;;-141.28;100.00;48475.88;5083216;28;20195;-76
2022/09/01 02:40:08;;;;;;;16.57;14.20;;;;;;;-141.28;100.00;48497.47;5100102;28;20211;-76
2022/09/01 02:42:39;;;;;;;15.93;13.43;;;;;;;-141.28;100.00;48505.31;5094605;28;20645;-76
2022/09/01 02:45:15;;;;;;;16.77;13.77;;;;;;;-141.28;100.00;48513.16;5097219;28;20278;-76
2022/09/01 02:47:45;;;;;;;18.97;14.40;;;;;;;-141.28;100.00;48544.56;5097569;28;20191;-76
2022/09/01 02:50:15;;;;;;;25.10;15.57;;;;;;;-141.28;100.00;48532.78;5090306;28;20211;-74
2022/09/01 02:52:44;;;;;;;19.43;14.00;;;;;;;-141.28;100.00;48540.63;5075736;28;20226;-76
2022/09/01 02:55:12;;;;;;;20.47;15.27;;;;;;;-141.28;100.00;48554.34;5091286;28;20253;-76
2022/09/01 02:57:39;;;;;;;19.30;14.20;;;;;;;-141.28;100.00;48540.63;5088089;28;20250;-76
2022/09/01 03:00:19;;;;;;;21.40;14.27;;;;;;;-141.28;100.00;48564.16;5100294;28;20211;-76
2022/09/01 03:02:52;;;;;;;17.47;12.90;;;;;;;-141.28;100.00;48611.25;5093574;28;20211;-75
2022/09/01 03:05:24;;;;;;;19.00;14.17;;;;;;;-141.28;100.00;48591.63;5091950;28;20199;-76
2022/09/01 03:07:56;;;;;;;20.80;13.80;;;;;;;-141.28;100.00;48605.38;5094712;28;20218;-76
2022/09/01 03:10:30;;;;;;;17.40;13.63;;;;;;;-141.28;100.00;48521.00;5112016;28;20222;-74
2022/09/01 03:12:58;;;;;;;17.80;13.07;;;;;;;-141.28;100.00;48634.78;5101727;28;20303;-76
2022/09/01 03:15:26;;;;;;;16.23;13.00;;;;;;;-141.28;100.00;48642.63;5106989;28;20202;-75
2022/09/01 03:17:59;;;;;;;18.03;14.00;;;;;;;-141.28;100.00;48654.41;5093692;28;20763;-75
2022/09/01 03:20:29;;;;;;;18.87;13.23;;;;;;;-141.28;100.00;48617.13;5081885;28;20195;-74
2022/09/01 03:22:57;;;;;;;21.40;14.57;;;;;;;-141.28;100.00;48607.31;5093708;28;20205;-76
2022/09/01 03:25:26;;;;;;;21.83;13.97;;;;;;;-141.28;100.00;48674.03;5080611;28;20184;-75
2022/09/01 03:27:54;;;;;;;19.20;14.33;;;;;;;-141.28;100.00;48648.53;5084174;28;20736;-76
2022/09/01 03:30:23;;;;;;;18.70;13.97;;;;;;;-141.28;100.00;48674.03;5087440;28;20192;-74
2022/09/01 03:32:50;;;;;;;18.87;13.23;;;;;;;-141.28;100.00;48674.03;5073971;28;20235;-76
2022/09/01 03:35:21;;;;;;;21.63;14.50;;;;;;;-141.28;100.00;48681.88;5078598;28;20713;-76
2022/09/01 03:37:48;;;;;;;17.03;14.07;;;;;;;-141.28;100.00;48607.31;5082506;28;20257;-77
2022/09/01 03:40:17;;;;;;;18.53;14.87;;;;;;;-141.28;100.00;48689.72;5074634;28;20224;-74
2022/09/01 03:42:45;;;;;;;21.67;15.00;;;;;;;-141.28;100.00;48681.88;5074244;28;20192;-75
2022/09/01 03:45:14;;;;;;;23.53;14.90;;;;;;;-141.28;100.00;48689.72;5085791;28;20203;-76
2022/09/01 03:47:42;;;;;;;25.10;15.63;;;;;;;-141.28;100.00;48693.66;5100272;28;20195;-77
2022/09/01 03:50:19;;;;;;;22.93;15.73;;;;;;;-141.28;100.00;48685.81;5093813;28;20574;-76
2022/09/01 03:52:49;;;;;;;18.20;14.47;;;;;;;-141.28;100.00;48705.41;5079321;28;20224;-74
2022/09/01 03:55:22;;;;;;;21.93;16.27;;;;;;;-141.28;100.00;48701.50;5082836;28;20206;-76
2022/09/01 03:57:49;;;;;;;22.93;15.40;;;;;;;-141.28;100.00;48695.59;5077263;28;20311;-77
2022/09/01 04:00:19;;;;;;;25.90;18.13;;;;;;;-141.28;100.00;48648.53;5073775;28;20204;-76
2022/09/01 04:02:49;;;;;;;29.73;19.33;;;;;;;-141.28;100.00;48666.19;5078690;28;20261;-76
2022/09/01 04:05:18;;;;;;;27.47;18.97;;;;;;;-141.28;100.00;48646.56;5094261;28;20235;-76
2022/09/01 04:07:49;;;;;;;25.37;18.93;;;;;;;-141.28;100.00;48634.78;5089954;28;20395;-75
2022/09/01 04:10:16;;;;;;;24.57;20.03;;;;;;;-141.28;100.00;48630.88;5086595;28;20209;-76
2022/09/01 04:12:44;;;;;;;25.93;20.47;;;;;;;-141.28;100.00;48605.38;5094634;28;20703;-75
2022/09/01 04:15:15;;;;;;;32.67;25.13;;;;;;;-141.28;100.00;48587.72;5097324;28;20650;-76
2022/09/01 04:20:27;;;;;;;44.90;32.50;;;;;;;-141.28;100.00;48621.06;5073324;28;20305;-77
2022/09/01 04:22:56;;;;;;;49.83;34.10;;;;;;;-141.28;100.00;48573.97;5090689;28;20199;-75
2022/09/01 04:25:24;;;;;;;32.97;23.00;;;;;;;-141.28;100.00;48544.56;5101263;28;20198;-74
2022/09/01 04:27:52;;;;;;;29.17;22.33;;;;;;;-141.28;100.00;48521.00;5104139;28;20206;-75
2022/09/01 04:30:28;;;;;;;25.20;20.10;;;;;;;-141.28;100.00;48497.47;5108685;28;20191;-75
2022/09/01 04:32:56;;;;;;;33.27;19.60;;;;;;;-141.28;100.00;48505.31;5101971;28;20593;-74
2022/09/01 04:35:29;;;;;;;25.33;19.47;;;;;;;-141.28;100.00;48454.31;5076484;28;20215;-76
2022/09/01 04:37:58;;;;;;;60.87;20.90;;;;;;;-141.28;100.00;48466.09;5072685;28;20211;-76
2022/09/01 04:40:26;;;;;;;33.60;19.47;;;;;;;-141.28;100.00;48446.47;5072761;28;20220;-76
2022/09/01 04:42:54;;;;;;;57.70;21.03;;;;;;;-141.28;100.00;48422.94;5072645;28;20199;-76
2022/09/01 04:45:26;;;;;;;35.00;22.20;;;;;;;-141.28;100.00;48422.94;5090925;28;20196;-75
2022/09/01 04:47:54;;;;;;;35.90;21.70;;;;;;;-141.28;100.00;48397.41;5075153;28;20199;-77
2022/09/01 04:50:24;;;;;;;34.97;21.27;;;;;;;-141.28;100.00;48368.00;5080599;28;20195;-75
2022/09/01 04:52:54;;;;;;;46.47;22.63;;;;;;;-141.28;100.00;48375.84;5081029;28;20220;-75
2022/09/01 04:55:25;;;;;;;26.87;20.23;;;;;;;-141.28;100.00;48360.16;5086922;28;20192;-75
2022/09/01 04:57:53;;;;;;;35.27;19.07;;;;;;;-141.28;100.00;48350.34;5088752;28;20292;-77
2022/09/01 05:00:25;;;;;;;36.40;19.43;;;;;;;-141.28;100.00;48336.63;5086379;28;20262;-75
2022/09/01 05:03:02;;;;;;;27.03;19.83;;;;;;;-141.28;100.00;48338.56;5074460;28;20219;-77
2022/09/01 05:05:32;;;;;;;26.83;19.73;;;;;;;-141.28;100.00;48330.72;5074608;28;20651;-75
2022/09/01 05:07:58;;;;;;;28.43;19.73;;;;;;;-141.28;100.00;48317.00;5078877;28;20295;-75
2022/09/01 05:10:28;;;;;;;30.97;19.30;;;;;;;-141.28;100.00;48309.16;5093727;28;20203;-75
2022/09/01 05:12:58;;;;;;;23.43;18.10;;;;;;;-141.28;100.00;48305.22;5090628;28;20232;-76
2022/09/01 05:15:25;;;;;;;23.67;17.63;;;;;;;-141.28;100.00;48299.34;5073585;28;20204;-76
2022/09/01 05:17:53;;;;;;;29.90;18.27;;;;;;;-141.28;100.00;48293.47;5089934;28;20258;-76
2022/09/01 05:20:23;;;;;;;32.80;17.83;;;;;;;-141.28;100.00;48297.38;5075908;28;20292;-78
2022/09/01 05:22:51;;;;;;;27.33;17.50;;;;;;;-141.28;100.00;48305.22;5092935;28;20196;-76
2022/09/01 05:25:19;;;;;;;21.33;16.87;;;;;;;-141.28;100.00;48297.38;5091575;28;20195;-76
2022/09/01 05:27:50;;;;;;;22.83;17.60;;;;;;;-141.28;100.00;48307.19;5100390;28;20279;-76
2022/09/01 05:30:18;;;;;;;27.13;18.97;;;;;;;-141.28;100.00;48307.19;5078477;28;20208;-74
2022/09/01 05:32:47;;;;;;;25.07;18.83;;;;;;;-141.28;100.00;48324.84;5087745;28;20227;-75
2022/09/01 05:35:16;;;;;;;25.43;17.77;;;;;;;-141.28;100.00;48330.72;5091683;28;20258;-75
2022/09/01 05:37:43;;;;;;;25.10;18.87;;;;;;;-141.28;100.00;48326.81;5091051;28;20215;-77
2022/09/01 05:40:14;;;;;;;20.03;17.20;;;;;;;-141.28;100.00;48324.84;5083497;28;20302;-77
2022/09/01 05:42:42;;;;;;;22.70;17.23;;;;;;;-141.28;100.00;48305.22;5095563;28;20226;-76
2022/09/01 05:45:22;;;;;;;22.20;15.57;;;;;;;-141.28;100.00;48332.69;5110390;28;20576;-76
2022/09/01 05:47:49;;;;;;;25.33;17.30;;;;;;;-141.28;100.00;48340.53;5088530;28;20203;-77
2022/09/01 05:50:20;;;;;;;18.10;16.20;;;;;;;-141.28;100.00;48354.28;5091417;28;20195;-75
2022/09/01 05:52:49;;;;;;;28.43;19.40;;;;;;;-141.28;100.00;48371.91;5111101;28;20279;-77
2022/09/01 05:55:18;;;;;;;21.87;17.23;;;;;;;-141.28;100.00;48383.69;5111735;28;20218;-77
2022/09/01 05:57:46;;;;;;;20.50;15.87;;;;;;;-141.28;100.00;48391.53;5097812;28;20238;-76
2022/09/01 06:00:16;;;;;;;24.40;16.27;;;;;;;-141.28;100.00;48413.13;5087909;28;20193;-76
2022/09/01 06:02:45;;;;;;;20.03;16.67;;;;;;;-141.28;100.00;48419.00;5110620;28;20210;-75
2022/09/01 06:05:14;;;;;;;28.33;16.10;;;;;;;-141.28;100.00;48446.47;5088046;28;20234;-76
2022/09/01 06:07:43;;;;;;;27.77;17.93;;;;;;;-141.28;100.00;48473.94;5081089;28;20193;-76
2022/09/01 06:10:13;;;;;;;43.57;21.40;;;;;;;-141.28;100.00;48497.47;5084643;28;20200;-76
2022/09/01 06:12:41;;;;;;;35.00;21.17;;;;;;;-141.28;100.00;48513.16;5071780;28;20232;-76
2022/09/01 06:15:14;;;;;;;38.97;21.13;;;;;;;-141.28;100.00;48509.25;5080867;28;20644;-76
2022/09/01 06:17:45;;;;;;;41.30;21.47;;;;;;;-141.28;100.00;48532.78;5096597;28;20199;-74
2022/09/01 06:20:13;;;;;;;30.10;18.90;;;;;;;-141.28;100.00;48532.78;5075047;28;20195;-77
2022/09/01 06:22:39;;;;;;;30.47;20.80;;;;;;;-141.28;100.00;48556.31;5099923;28;20200;-76
2022/09/01 06:25:09;;;;;;;30.37;19.70;;;;;;;-141.28;100.00;48556.31;5079628;28;20218;-75
2022/09/01 06:27:40;;;;;;;39.97;21.60;;;;;;;-141.28;100.00;48568.09;5081726;28;20627;-75
2022/09/01 06:30:13;;;;;;;42.77;22.17;;;;;;;-141.28;100.00;48570.06;5104824;28;20203;-75
2022/09/01 06:32:43;;;;;;;42.67;23.47;;;;;;;-141.28;100.00;48587.72;5088960;28;20230;-76
2022/09/01 06:35:12;;;;;;;39.27;22.80;;;;;;;-141.28;100.00;48583.78;5085403;28;20212;-78
2022/09/01 06:37:42;;;;;;;38.00;22.60;;;;;;;-141.28;100.00;48587.72;5086458;28;20206;-76
2022/09/01 06:40:15;;;;;;;40.97;23.63;;;;;;;-141.28;100.00;48517.09;5086207;28;20223;-76
2022/09/01 06:42:43;;;;;;;38.87;23.23;;;;;;;-141.28;100.00;48609.28;5089246;28;20290;-74
2022/09/01 06:45:11;;;;;;;34.13;21.87;;;;;;;-141.28;100.00;48609.28;5086247;28;20204;-76
2022/09/01 06:47:43;;;;;;;37.67;22.33;;;;;;;-141.28;100.00;48607.31;5076568;28;20192;-77
2022/09/01 06:50:13;;;;;;;40.13;24.33;;;;;;;-141.28;100.00;48636.75;5094290;28;20207;-76
2022/09/01 06:52:42;;;;;;;42.70;23.57;;;;;;;-141.28;100.00;48658.34;5107852;28;20222;-75
2022/09/01 06:55:10;;;;;;;42.60;25.27;;;;;;;-141.28;100.00;48670.09;5088628;28;20568;-75
2022/09/01 06:57:38;;;;;;;39.60;24.43;;;;;;;-141.28;100.00;48638.72;5114481;28;20207;-75
2022/09/01 07:00:16;;;;;;;37.87;24.83;;;;;;;-141.28;100.00;48662.25;5106813;28;20195;-75
2022/09/01 07:02:44;;;;;;;38.93;23.40;;;;;;;-141.28;100.00;48689.72;5092354;28;20203;-75
2022/09/01 07:05:18;;;;;;;41.30;23.50;;;;;;;-141.28;100.00;48691.69;5074547;28;20206;-76
2022/09/01 07:07:50;;;;;;;34.03;22.13;;;;;;;-141.28;100.00;48748.56;5088805;28;20191;-75
2022/09/01 07:10:21;;;;;;;33.17;22.37;;;;;;;-141.28;100.00;48779.97;5085557;28;20211;-76
2022/09/01 07:12:50;;;;;;;37.63;23.47;;;;;;;-141.28;100.00;48819.22;5080911;28;20700;-76
2022/09/01 07:15:20;;;;;;;37.03;21.73;;;;;;;-141.28;100.00;48844.72;5094732;28;20674;-76
2022/09/01 07:17:51;;;;;;;35.17;22.47;;;;;;;-141.28;100.00;48897.69;5088743;28;20242;-76
2022/09/01 07:20:22;;;;;;;35.60;21.80;;;;;;;-141.28;100.00;48991.84;5075058;28;20208;-77
2022/09/01 07:22:57;;;;;;;34.50;21.37;;;;;;;-141.28;100.00;49058.56;5094539;28;20278;-77
2022/09/01 07:25:25;;;;;;;34.50;22.63;;;;;;;-141.28;100.00;49180.22;5078143;28;20573;-76
2022/09/01 07:27:53;;;;;;;39.83;22.03;;;;;;;-141.28;100.00;49168.44;5094711;28;20194;-75
2022/09/01 07:30:22;;;;;;;32.73;22.63;;;;;;;-141.28;100.00;49333.25;5091850;28;20199;-75
2022/09/01 07:32:50;;;;;;;32.70;21.07;;;;;;;-141.28;100.00;49468.66;5093857;28;20222;-75
2022/09/01 07:35:21;;;;;;;34.07;22.27;;;;;;;-141.28;100.00;49611.91;5111454;28;20206;-75
2022/09/01 07:37:49;;;;;;;31.30;20.90;;;;;;;-141.28;100.00;49662.94;5102134;28;20206;-75
2022/09/01 07:40:21;;;;;;;30.90;20.53;;;;;;;-141.28;100.00;49894.50;5111934;28;20222;-76
2022/09/01 07:42:49;;;;;;;28.73;21.17;;;;;;;-141.28;100.00;50122.16;5101406;28;20215;-75
2022/09/01 07:45:18;;;;;;;28.30;21.30;;;;;;;-141.28;100.00;50334.13;5093589;28;20192;-76
2022/09/01 07:47:46;;;;;;;31.67;21.43;;;;;;;-141.28;100.00;50457.78;5106324;28;20199;-75
2022/09/01 07:50:14;;;;;;;32.93;21.60;;;;;;;-141.28;100.00;50601.09;5093051;28;20563;-76
2022/09/01 07:52:48;;;;;;;29.63;22.47;;;;;;;-141.28;100.00;50744.38;5106757;28;20219;-75
2022/09/01 07:55:17;;;;;;;29.83;20.97;;;;;;;-141.28;100.00;50789.53;5113469;28;20224;-75
2022/09/01 07:57:45;;;;;;;30.97;21.10;;;;;;;-141.28;100.00;50852.34;5109746;28;20194;-75
2022/09/01 08:00:15;;;;;;;31.17;21.57;;;;;;;-141.28;100.00;50881.78;5092988;28;20641;-74
2022/09/01 08:02:45;;;;;;;26.67;20.03;;;;;;;-141.28;100.00;50846.47;5092797;28;20566;-76
2022/09/01 08:05:16;;;;;;;25.93;20.30;;;;;;;-141.28;100.00;50687.47;5075435;28;20658;-76
2022/09/01 08:07:46;;;;;;;27.57;21.37;;;;;;;-141.28;100.00;50640.34;5092937;28;20192;-75
2022/09/01 08:10:13;;;;;;;26.40;18.97;;;;;;;-141.28;100.00;50557.91;5093286;28;20668;-74
2022/09/01 08:12:41;;;;;;;24.13;18.13;;;;;;;-141.28;100.00;50479.38;5080643;28;20223;-74
2022/09/01 08:15:11;;;;;;;24.37;18.47;;;;;;;-141.28;100.00;50447.97;5092861;28;20200;-75
2022/09/01 08:17:39;;;;;;;24.23;18.97;;;;;;;-141.28;100.00;50487.25;5091516;28;20589;-77
2022/09/01 08:20:08;;;;;;;23.13;18.03;;;;;;;-141.28;100.00;50487.25;5104517;28;20192;-75
2022/09/01 08:22:39;;;;;;;24.93;18.07;;;;;;;-141.28;100.00;50565.75;5101868;28;20254;-75
2022/09/01 08:25:08;;;;;;;22.90;17.70;;;;;;;-141.28;100.00;50783.66;5096882;28;20200;-74
2022/09/01 08:27:37;;;;;;;27.20;18.33;;;;;;;-141.28;100.00;50950.50;5082131;28;20196;-76
2022/09/01 08:30:07;;;;;;;25.97;19.60;;;;;;;-141.28;100.00;51140.94;5106562;28;20289;-75
2022/09/01 08:32:34;;;;;;;26.27;19.27;;;;;;;-141.28;100.00;51354.94;5092288;28;20192;-75
2022/09/01 08:35:03;;;;;;;27.87;19.90;;;;;;;-141.28;100.00;51441.31;5107202;28;20695;-73
2022/09/01 08:37:31;;;;;;;21.73;18.07;;;;;;;-141.28;100.00;51527.72;5112702;28;20206;-76
2022/09/01 08:39:58;;;;;;;23.67;18.37;;;;;;;-141.28;100.00;51627.84;5112486;28;20248;-76
2022/09/01 08:42:43;;;;;;;24.47;16.80;;;;;;;-141.28;100.00;51737.81;5112762;28;20672;-75
2022/09/01 08:45:21;;;;;;;24.10;17.03;;;;;;;-141.28;100.00;51743.72;5080070;28;20308;-75
2022/09/01 08:47:52;;;;;;;21.07;15.27;;;;;;;-141.28;100.00;51808.50;5078369;28;20222;-74
2022/09/01 08:50:20;;;;;;;24.77;16.03;;;;;;;-141.28;100.00;51877.25;5084984;28;20210;-74
2022/09/01 08:52:54;;;;;;;36.30;18.43;;;;;;;-141.28;100.00;51908.66;5105404;28;20223;-74
2022/09/01 08:55:29;;;;;;;23.83;17.00;;;;;;;-141.28;100.00;52101.09;5101456;28;20206;-76
2022/09/01 08:58:00;;;;;;;30.07;18.03;;;;;;;-141.28;100.00;52083.44;5092361;28;20230;-74
2022/09/01 09:00:29;;;;;;;23.43;15.63;;;;;;;-141.28;100.00;52122.72;5103698;28;20210;-77
2022/09/01 09:03:12;;;;;;;22.70;15.13;;;;;;;-141.28;100.00;52187.50;5106954;28;20196;-77
2022/09/01 09:05:57;;;;;;;26.33;16.57;;;;;;;-141.28;100.00;52138.41;5091169;28;20207;-76
2022/09/01 09:08:52;;;;;;;17.70;15.50;;;;;;;-141.28;100.00;52140.38;5085147;28;20272;-76
2022/09/01 09:11:51;;;;;;;27.30;16.60;;;;;;;-141.28;100.00;52167.88;5089330;28;20307;-76
2022/09/01 09:14:33;;;;;;;23.83;16.53;;;;;;;-141.28;100.00;52167.88;5111692;28;20231;-75
2022/09/01 09:17:00;;;;;;;24.33;15.87;;;;;;;-141.28;100.00;52140.38;5094246;28;20199;-75
2022/09/01 09:19:32;;;;;;;22.07;16.83;;;;;;;-141.28;100.00;52085.41;5092310;28;20196;-76
2022/09/01 09:22:04;;;;;;;22.43;15.80;;;;;;;-141.28;100.00;52128.59;5091990;28;20253;-76
2022/09/01 09:24:46;;;;;;;19.00;14.90;;;;;;;-141.28;100.00;52059.88;5083138;28;20200;-76
2022/09/01 09:27:18;;;;;;;20.97;15.97;;;;;;;-141.28;100.00;52077.53;5072197;28;20203;-76
2022/09/01 09:29:52;;;;;;;22.40;14.00;;;;;;;-141.28;100.00;52059.88;5084465;28;20258;-76
2022/09/01 09:32:20;;;;;;;19.60;12.83;;;;;;;-141.28;100.00;52091.28;5072120;28;20196;-75
2022/09/01 09:34:49;;;;;;;30.60;14.77;;;;;;;-141.28;100.00;52034.34;5072487;28;20234;-76
2022/09/01 09:37:25;;;;;;;31.83;14.90;;;;;;;-141.28;100.00;52022.56;5084791;28;20257;-77
2022/09/01 09:40:13;;;;;;;23.90;13.97;;;;;;;-141.28;100.00;52010.78;5085084;28;20246;-77
2022/09/01 09:43:02;;;;;;;25.17;15.43;;;;;;;-141.28;100.00;51947.94;5091894;28;20200;-76
2022/09/01 09:45:38;;;;;;;26.97;13.70;;;;;;;-141.28;100.00;51900.81;5077945;28;20192;-77
2022/09/01 09:48:09;;;;;;;25.83;14.47;;;;;;;-141.28;100.00;51877.25;5102789;28;20198;-77
2022/09/01 09:50:42;;;;;;;21.87;12.73;;;;;;;-141.28;100.00;51826.19;5100595;28;20278;-76
2022/09/01 09:53:16;;;;;;;20.20;13.53;;;;;;;-141.28;100.00;51696.59;5073977;28;20224;-76
2022/09/01 09:55:58;;;;;;;18.30;11.93;;;;;;;-141.28;100.00;51667.13;5085508;28;20196;-75
2022/09/01 09:58:27;;;;;;;16.83;11.40;;;;;;;-141.28;100.00;51453.09;5090344;28;20231;-76
2022/09/01 10:01:06;;;;;;;14.03;11.10;;;;;;;-141.28;100.00;51233.22;5088705;28;20202;-74
2022/09/01 10:03:42;;;;;;;11.77;9.77;;;;;;;-141.28;100.00;51221.44;5092301;28;20198;-76
2022/09/01 10:06:16;;;;;;;13.47;10.37;;;;;;;-141.28;100.00;51017.25;5078272;28;20321;-77
2022/09/01 10:08:46;;;;;;;13.33;9.90;;;;;;;-141.28;100.00;50948.53;5092329;28;20226;-76
2022/09/01 10:11:27;;;;;;;12.57;10.03;;;;;;;-141.28;100.00;50542.19;5091997;28;20217;-75
2022/09/01 10:13:55;;;;;;;14.73;9.73;;;;;;;-141.28;100.00;50589.31;5076806;28;20224;-76
2022/09/01 10:16:30;;;;;;;13.73;8.80;;;;;;;-141.28;100.00;50699.22;5103059;28;20645;-77
2022/09/01 10:18:59;;;;;;;13.80;9.57;;;;;;;-141.28;100.00;50671.75;5099613;28;20281;-75
2022/09/01 10:21:36;;;;;;;11.67;9.17;;;;;;;-141.28;100.00;50734.56;5103719;28;20195;-75
2022/09/01 10:24:14;;;;;;;13.30;9.40;;;;;;;-141.28;100.00;50748.31;5091400;28;20200;-77
2022/09/01 10:26:43;;;;;;;13.43;9.70;;;;;;;-141.28;100.00;51017.25;5085324;28;20644;-75
2022/09/01 10:29:15;;;;;;;14.90;10.57;;;;;;;-141.28;100.00;51201.81;5098348;28;20282;-74
2022/09/01 10:31:45;;;;;;;16.00;10.00;;;;;;;-141.28;100.00;51113.44;5077608;28;20199;-75
2022/09/01 10:34:16;;;;;;;17.63;10.07;;;;;;;-141.28;100.00;51197.88;5089014;28;20224;-77
2022/09/01 10:36:48;;;;;;;12.67;9.83;;;;;;;-141.28;100.00;51303.88;5102048;28;20672;-76
2022/09/01 10:39:18;;;;;;;15.83;11.00;;;;;;;-141.28;100.00;51284.25;5087952;28;20220;-75
2022/09/01 10:42:06;;;;;;;16.67;10.47;;;;;;;-141.28;100.00;51315.66;5089315;28;20567;-73
2022/09/01 10:44:37;;;;;;;19.10;11.03;;;;;;;-141.28;100.00;51331.38;5075674;28;20208;-75
2022/09/01 10:47:10;;;;;;;17.43;11.10;;;;;;;-141.28;100.00;51339.22;5093155;28;20192;-76
2022/09/01 10:50:01;;;;;;;22.80;10.63;;;;;;;-141.28;100.00;51268.56;5082532;28;20196;-73
2022/09/01 10:52:59;;;;;;;19.87;10.80;;;;;;;-141.28;100.00;51335.31;5084202;28;20207;-75
2022/09/01 10:55:32;;;;;;;15.27;10.80;;;;;;;-141.28;100.00;51323.53;5074850;28;20193;-75
2022/09/01 10:58:13;;;;;;;17.60;10.33;;;;;;;-141.28;100.00;51272.47;5084020;28;20223;-76
2022/09/01 11:00:54;;;;;;;12.80;10.57;;;;;;;-141.28;100.00;51303.88;5077608;28;20565;-76
2022/09/01 11:03:52;;;;;;;20.70;10.53;;;;;;;-141.28;100.00;51284.25;5074856;28;20196;-75
2022/09/01 11:07:01;;;;;;;19.00;10.67;;;;;;;-141.28;100.00;51233.22;5095264;28;20215;-75
2022/09/01 11:09:36;;;;;;;12.27;9.57;;;;;;;-141.28;100.00;51103.63;5089245;28;20577;-75
2022/09/01 11:12:36;;;;;;;15.43;10.87;;;;;;;-141.28;100.00;51101.66;5085934;28;20274;-76
2022/09/01 11:15:25;;;;;;;19.83;10.13;;;;;;;-141.28;100.00;51017.25;5077896;28;20231;-75
2022/09/01 11:17:58;;;;;;;16.53;9.83;;;;;;;-141.28;100.00;50866.09;5094220;28;20214;-76
2022/09/01 11:20:32;;;;;;;16.97;9.90;;;;;;;-141.28;100.00;50736.53;5074289;28;20652;-76